COYOTE (LAKE MENDOCINO) (COY)

Elevation: 720' · RUSSIAN R basin · Operator: US Army Corps of Engineers

Provisional data, subject to change.
Query executed Thursday at 7:02:33   clock

Select a sensor type for a plot of data.
Note: Reservoir Flows are daily averages.

Earlier

Date RES ELE    STORAGE    RES CHG    TOC STO    ABV TOC    OUTFLOW    INFLOW    PPT INC    TEMP MN    TEMP MX    EVP PAN   
 FEET   AF   AF   AF   AF   CFS   CFS   INCHES   DEG F   DEG F   INCHES  
07/01/2015 727.98 53158 -154 86370 -33212 116 56 0.00 17 41 0.36
07/02/2015 727.85 52958 -200 86370 -33412 116 31 0.00 19 40 0.33
07/03/2015 727.76 52820 -138 86370 -33550 116 60 0.00 19 36 0.27
07/04/2015 727.65 52652 -168 86370 -33718 116 39 0.00 18 39 0.34
07/05/2015 727.54 52483 -169 86370 -33887 116 40 0.00 -71 34 0.20
07/06/2015 727.45 52346 -137 86370 -34024 116 58 0.00 -9 31 0.23
07/07/2015 727.33 52162 -184 86370 -34208 117 34 0.00 -6 26 0.20
07/08/2015 727.22 51994 -168 86370 -34376 119 47 0.00 14 32 0.26
07/09/2015 727.13 51857 -137 86370 -34513 117 53 0.00 15 21 0.09
07/10/2015 727.04 51720 -137 86370 -34650 116 52 0.00 15 22 0.11
07/11/2015 726.94 51568 -152 86370 -34802 116 49 0.00 16 28 0.20
07/12/2015 726.84 51416 -152 86370 -34954 116 52 0.00 13 27 0.26
07/13/2015 726.74 51264 -152 86370 -35106 115 51 0.00 14 30 0.26
07/14/2015 726.64 51112 -152 86370 -35258 115 53 0.00 13 31 0.29
07/15/2015 726.52 50930 -182 86370 -35440 114 37 0.04 14 36 0.31
07/16/2015 726.40 50748 -182 86370 -35622 110 33 0.00 2 37 0.31
07/17/2015 726.25 50522 -226 86370 -35848 110 12 0.00 12 38 0.33
07/18/2015 726.11 50310 -212 86370 -36060 112 17 0.00 -47 33 0.25
07/19/2015 725.98 50115 -195 86370 -36255 114 30 0.00 6 34 0.29
07/20/2015 725.84 49904 -211 86370 -36466 116 24 0.00 17 36 0.31
07/21/2015 725.71 49709 -195 86370 -36661 116 32 0.00 16 35 0.31
07/22/2015 725.60 49544 -165 86370 -36826 114 46 0.00 9 32 0.30
07/23/2015 725.49 49379 -165 86370 -36991 105 32 0.00 -10 27 0.21
07/24/2015 725.38 49214 -165 86370 -37156 104 33 0.00 5 28 0.26
07/25/2015 725.26 49035 -179 86370 -37335 107 31 0.00 7 34 0.29
07/26/2015 725.14 48856 -179 86370 -37514 113 37 0.00 13 32 0.28
07/27/2015 725.02 48677 -179 86370 -37693 115 40 0.00 12 36 0.31
07/28/2015 724.88 48468 -209 86370 -37902 125 36 0.00 13 41 0.34
07/29/2015 724.75 48275 -193 86370 -38095 127 46 0.00 14 43 0.34
07/30/2015 -- -- -- -- -- -- -- -- -- -- --

Later | Latest

Warning! This data is preliminary and subject to revision.

Show COY Map | Plot COY Data | 1 Month COY Data | Real-Time COY Data | COY Info